sensor_id;sensor_type;location;lat;lon;timestamp;P1;durP1;ratioP1;P2;durP2;ratioP2
6243;SDS011;3155;49.940;8.450;2022-07-29T00:00:14;0.45;;;0.45;;
6243;SDS011;3155;49.940;8.450;2022-07-29T00:02:41;0.40;;;0.40;;
6243;SDS011;3155;49.940;8.450;2022-07-29T00:05:08;0.30;;;0.30;;
6243;SDS011;3155;49.940;8.450;2022-07-29T00:07:36;0.40;;;0.40;;
6243;SDS011;3155;49.940;8.450;2022-07-29T00:10:03;0.40;;;0.40;;
6243;SDS011;3155;49.940;8.450;2022-07-29T00:12:30;0.55;;;0.55;;
6243;SDS011;3155;49.940;8.450;2022-07-29T00:14:59;1.00;;;0.30;;
6243;SDS011;3155;49.940;8.450;2022-07-29T00:17:26;0.40;;;0.40;;
6243;SDS011;3155;49.940;8.450;2022-07-29T00:19:55;0.40;;;0.40;;
6243;SDS011;3155;49.940;8.450;2022-07-29T00:22:22;0.20;;;0.20;;
6243;SDS011;3155;49.940;8.450;2022-07-29T00:24:49;0.40;;;0.40;;
6243;SDS011;3155;49.940;8.450;2022-07-29T00:27:19;0.23;;;0.23;;
6243;SDS011;3155;49.940;8.450;2022-07-29T00:29:46;0.40;;;0.30;;
6243;SDS011;3155;49.940;8.450;2022-07-29T00:32:12;0.40;;;0.40;;
6243;SDS011;3155;49.940;8.450;2022-07-29T00:34:39;0.30;;;0.30;;
6243;SDS011;3155;49.940;8.450;2022-07-29T00:37:25;0.40;;;0.40;;
6243;SDS011;3155;49.940;8.450;2022-07-29T00:39:52;0.47;;;0.47;;
6243;SDS011;3155;49.940;8.450;2022-07-29T00:42:19;0.40;;;0.40;;
6243;SDS011;3155;49.940;8.450;2022-07-29T00:44:46;0.60;;;0.40;;
6243;SDS011;3155;49.940;8.450;2022-07-29T00:47:12;0.47;;;0.47;;
6243;SDS011;3155;49.940;8.450;2022-07-29T00:49:40;0.38;;;0.38;;
6243;SDS011;3155;49.940;8.450;2022-07-29T00:52:08;0.40;;;0.40;;
6243;SDS011;3155;49.940;8.450;2022-07-29T00:54:38;0.40;;;0.40;;
6243;SDS011;3155;49.940;8.450;2022-07-29T00:57:10;0.33;;;0.33;;
6243;SDS011;3155;49.940;8.450;2022-07-29T00:59:41;0.30;;;0.30;;
6243;SDS011;3155;49.940;8.450;2022-07-29T01:02:07;0.30;;;0.30;;
6243;SDS011;3155;49.940;8.450;2022-07-29T01:04:34;0.28;;;0.28;;
6243;SDS011;3155;49.940;8.450;2022-07-29T01:07:01;0.40;;;0.40;;
6243;SDS011;3155;49.940;8.450;2022-07-29T01:09:30;0.30;;;0.30;;
6243;SDS011;3155;49.940;8.450;2022-07-29T01:12:10;0.30;;;0.30;;
6243;SDS011;3155;49.940;8.450;2022-07-29T01:14:39;0.50;;;0.50;;
6243;SDS011;3155;49.940;8.450;2022-07-29T01:17:10;0.40;;;0.40;;
6243;SDS011;3155;49.940;8.450;2022-07-29T01:20:02;0.40;;;0.40;;
6243;SDS011;3155;49.940;8.450;2022-07-29T01:22:53;0.40;;;0.40;;
6243;SDS011;3155;49.940;8.450;2022-07-29T01:31:04;0.50;;;0.35;;
6243;SDS011;3155;49.940;8.450;2022-07-29T01:33:38;0.40;;;0.40;;
6243;SDS011;3155;49.940;8.450;2022-07-29T01:36:18;0.30;;;0.30;;
6243;SDS011;3155;49.940;8.450;2022-07-29T01:38:54;0.40;;;0.40;;
6243;SDS011;3155;49.940;8.450;2022-07-29T01:41:37;0.35;;;0.35;;
6243;SDS011;3155;49.940;8.450;2022-07-29T01:47:15;0.30;;;0.30;;
6243;SDS011;3155;49.940;8.450;2022-07-29T01:49:47;0.50;;;0.50;;
6243;SDS011;3155;49.940;8.450;2022-07-29T01:52:25;0.43;;;0.43;;
6243;SDS011;3155;49.940;8.450;2022-07-29T01:54:58;0.40;;;0.40;;
6243;SDS011;3155;49.940;8.450;2022-07-29T01:57:29;0.40;;;0.40;;
6243;SDS011;3155;49.940;8.450;2022-07-29T01:59:59;0.50;;;0.50;;
6243;SDS011;3155;49.940;8.450;2022-07-29T02:02:28;0.50;;;0.50;;
6243;SDS011;3155;49.940;8.450;2022-07-29T02:04:56;0.40;;;0.40;;
6243;SDS011;3155;49.940;8.450;2022-07-29T02:07:25;0.37;;;0.33;;
6243;SDS011;3155;49.940;8.450;2022-07-29T02:09:55;0.50;;;0.40;;
6243;SDS011;3155;49.940;8.450;2022-07-29T02:12:24;1.48;;;0.40;;
6243;SDS011;3155;49.940;8.450;2022-07-29T02:14:52;0.40;;;0.40;;
6243;SDS011;3155;49.940;8.450;2022-07-29T02:17:27;0.40;;;0.40;;
6243;SDS011;3155;49.940;8.450;2022-07-29T02:20:06;0.43;;;0.40;;
6243;SDS011;3155;49.940;8.450;2022-07-29T02:22:35;0.40;;;0.40;;
6243;SDS011;3155;49.940;8.450;2022-07-29T02:25:04;0.50;;;0.50;;
6243;SDS011;3155;49.940;8.450;2022-07-29T02:27:39;0.60;;;0.60;;
6243;SDS011;3155;49.940;8.450;2022-07-29T02:30:08;0.40;;;0.40;;
6243;SDS011;3155;49.940;8.450;2022-07-29T02:32:37;0.50;;;0.50;;
6243;SDS011;3155;49.940;8.450;2022-07-29T02:35:06;0.70;;;0.70;;
6243;SDS011;3155;49.940;8.450;2022-07-29T02:37:36;0.50;;;0.50;;
6243;SDS011;3155;49.940;8.450;2022-07-29T02:40:03;0.50;;;0.50;;
6243;SDS011;3155;49.940;8.450;2022-07-29T02:42:32;0.50;;;0.50;;
6243;SDS011;3155;49.940;8.450;2022-07-29T02:45:02;0.40;;;0.40;;
6243;SDS011;3155;49.940;8.450;2022-07-29T02:47:43;1.67;;;0.50;;
6243;SDS011;3155;49.940;8.450;2022-07-29T02:53:18;0.40;;;0.40;;
6243;SDS011;3155;49.940;8.450;2022-07-29T02:55:51;0.50;;;0.50;;
6243;SDS011;3155;49.940;8.450;2022-07-29T02:58:27;0.40;;;0.40;;
6243;SDS011;3155;49.940;8.450;2022-07-29T03:01:01;0.50;;;0.50;;
6243;SDS011;3155;49.940;8.450;2022-07-29T03:03:34;0.40;;;0.40;;
6243;SDS011;3155;49.940;8.450;2022-07-29T03:06:03;0.40;;;0.40;;
6243;SDS011;3155;49.940;8.450;2022-07-29T03:08:30;0.60;;;0.60;;
6243;SDS011;3155;49.940;8.450;2022-07-29T03:11:01;1.20;;;0.30;;
6243;SDS011;3155;49.940;8.450;2022-07-29T03:13:29;0.60;;;0.45;;
6243;SDS011;3155;49.940;8.450;2022-07-29T03:15:58;0.60;;;0.60;;
6243;SDS011;3155;49.940;8.450;2022-07-29T03:18:25;0.47;;;0.47;;
6243;SDS011;3155;49.940;8.450;2022-07-29T03:20:53;0.70;;;0.70;;
6243;SDS011;3155;49.940;8.450;2022-07-29T03:23:21;0.43;;;0.43;;
6243;SDS011;3155;49.940;8.450;2022-07-29T03:25:49;0.30;;;0.30;;
6243;SDS011;3155;49.940;8.450;2022-07-29T03:28:17;0.30;;;0.30;;
6243;SDS011;3155;49.940;8.450;2022-07-29T03:30:44;0.40;;;0.40;;
6243;SDS011;3155;49.940;8.450;2022-07-29T03:33:11;0.40;;;0.40;;
6243;SDS011;3155;49.940;8.450;2022-07-29T03:35:39;0.45;;;0.45;;
6243;SDS011;3155;49.940;8.450;2022-07-29T03:38:06;0.50;;;0.50;;
6243;SDS011;3155;49.940;8.450;2022-07-29T03:40:41;0.40;;;0.40;;
6243;SDS011;3155;49.940;8.450;2022-07-29T03:43:15;0.30;;;0.30;;
6243;SDS011;3155;49.940;8.450;2022-07-29T03:45:44;0.50;;;0.50;;
6243;SDS011;3155;49.940;8.450;2022-07-29T03:48:14;0.55;;;0.50;;
6243;SDS011;3155;49.940;8.450;2022-07-29T03:50:43;0.65;;;0.60;;
6243;SDS011;3155;49.940;8.450;2022-07-29T03:53:11;0.50;;;0.50;;
6243;SDS011;3155;49.940;8.450;2022-07-29T03:55:43;0.60;;;0.50;;
6243;SDS011;3155;49.940;8.450;2022-07-29T03:58:12;0.57;;;0.57;;
6243;SDS011;3155;49.940;8.450;2022-07-29T04:00:40;0.57;;;0.50;;
6243;SDS011;3155;49.940;8.450;2022-07-29T04:03:09;0.38;;;0.38;;
6243;SDS011;3155;49.940;8.450;2022-07-29T04:05:37;0.50;;;0.50;;
6243;SDS011;3155;49.940;8.450;2022-07-29T04:08:04;0.50;;;0.50;;
6243;SDS011;3155;49.940;8.450;2022-07-29T04:10:31;0.50;;;0.50;;
6243;SDS011;3155;49.940;8.450;2022-07-29T04:13:00;0.50;;;0.50;;
6243;SDS011;3155;49.940;8.450;2022-07-29T04:15:27;0.45;;;0.45;;
6243;SDS011;3155;49.940;8.450;2022-07-29T04:17:56;0.43;;;0.43;;
6243;SDS011;3155;49.940;8.450;2022-07-29T04:20:24;0.60;;;0.60;;
6243;SDS011;3155;49.940;8.450;2022-07-29T04:22:51;0.70;;;0.70;;
6243;SDS011;3155;49.940;8.450;2022-07-29T04:25:18;1.90;;;0.50;;
6243;SDS011;3155;49.940;8.450;2022-07-29T04:27:48;0.45;;;0.43;;
6243;SDS011;3155;49.940;8.450;2022-07-29T04:30:27;0.55;;;0.50;;
6243;SDS011;3155;49.940;8.450;2022-07-29T04:32:54;0.95;;;0.60;;
6243;SDS011;3155;49.940;8.450;2022-07-29T04:35:21;0.50;;;0.50;;
6243;SDS011;3155;49.940;8.450;2022-07-29T04:37:48;0.57;;;0.57;;
6243;SDS011;3155;49.940;8.450;2022-07-29T04:40:15;0.40;;;0.40;;
6243;SDS011;3155;49.940;8.450;2022-07-29T04:42:42;1.90;;;0.70;;
6243;SDS011;3155;49.940;8.450;2022-07-29T04:45:14;0.90;;;0.50;;
6243;SDS011;3155;49.940;8.450;2022-07-29T04:47:41;0.40;;;0.40;;
6243;SDS011;3155;49.940;8.450;2022-07-29T04:50:08;0.73;;;0.73;;
6243;SDS011;3155;49.940;8.450;2022-07-29T04:52:36;1.10;;;0.60;;
6243;SDS011;3155;49.940;8.450;2022-07-29T04:55:03;0.60;;;0.60;;
6243;SDS011;3155;49.940;8.450;2022-07-29T04:57:31;0.45;;;0.45;;
6243;SDS011;3155;49.940;8.450;2022-07-29T04:59:58;0.50;;;0.50;;
6243;SDS011;3155;49.940;8.450;2022-07-29T05:02:25;0.60;;;0.30;;
6243;SDS011;3155;49.940;8.450;2022-07-29T05:04:52;0.43;;;0.43;;
6243;SDS011;3155;49.940;8.450;2022-07-29T05:07:19;0.50;;;0.50;;
6243;SDS011;3155;49.940;8.450;2022-07-29T05:09:46;0.40;;;0.40;;
6243;SDS011;3155;49.940;8.450;2022-07-29T05:12:13;0.70;;;0.60;;
6243;SDS011;3155;49.940;8.450;2022-07-29T05:14:40;0.57;;;0.50;;
6243;SDS011;3155;49.940;8.450;2022-07-29T05:17:08;0.50;;;0.50;;
6243;SDS011;3155;49.940;8.450;2022-07-29T05:19:35;0.52;;;0.52;;
6243;SDS011;3155;49.940;8.450;2022-07-29T05:22:05;0.50;;;0.50;;
6243;SDS011;3155;49.940;8.450;2022-07-29T05:24:32;0.40;;;0.40;;
6243;SDS011;3155;49.940;8.450;2022-07-29T05:26:58;0.40;;;0.40;;
6243;SDS011;3155;49.940;8.450;2022-07-29T05:29:26;0.40;;;0.40;;
6243;SDS011;3155;49.940;8.450;2022-07-29T05:32:11;0.40;;;0.40;;
6243;SDS011;3155;49.940;8.450;2022-07-29T05:34:39;0.50;;;0.50;;
6243;SDS011;3155;49.940;8.450;2022-07-29T05:37:17;0.40;;;0.40;;
6243;SDS011;3155;49.940;8.450;2022-07-29T05:39:47;0.40;;;0.40;;
6243;SDS011;3155;49.940;8.450;2022-07-29T05:42:22;0.40;;;0.40;;
6243;SDS011;3155;49.940;8.450;2022-07-29T05:44:49;0.40;;;0.40;;
6243;SDS011;3155;49.940;8.450;2022-07-29T05:47:16;0.73;;;0.50;;
6243;SDS011;3155;49.940;8.450;2022-07-29T05:49:43;0.50;;;0.50;;
6243;SDS011;3155;49.940;8.450;2022-07-29T05:52:10;0.50;;;0.50;;
6243;SDS011;3155;49.940;8.450;2022-07-29T05:54:44;0.50;;;0.50;;
6243;SDS011;3155;49.940;8.450;2022-07-29T05:59:48;0.50;;;0.50;;
6243;SDS011;3155;49.940;8.450;2022-07-29T06:02:16;0.30;;;0.30;;
6243;SDS011;3155;49.940;8.450;2022-07-29T06:04:43;0.40;;;0.40;;
6243;SDS011;3155;49.940;8.450;2022-07-29T06:07:10;0.45;;;0.45;;
6243;SDS011;3155;49.940;8.450;2022-07-29T06:09:37;0.45;;;0.45;;
6243;SDS011;3155;49.940;8.450;2022-07-29T06:12:10;0.40;;;0.40;;
6243;SDS011;3155;49.940;8.450;2022-07-29T06:14:38;0.55;;;0.55;;
6243;SDS011;3155;49.940;8.450;2022-07-29T06:17:08;0.52;;;0.52;;
6243;SDS011;3155;49.940;8.450;2022-07-29T06:19:35;0.50;;;0.50;;
6243;SDS011;3155;49.940;8.450;2022-07-29T06:22:02;0.40;;;0.40;;
6243;SDS011;3155;49.940;8.450;2022-07-29T06:24:29;0.50;;;0.50;;
6243;SDS011;3155;49.940;8.450;2022-07-29T06:26:57;0.40;;;0.40;;
6243;SDS011;3155;49.940;8.450;2022-07-29T06:29:23;0.50;;;0.50;;
6243;SDS011;3155;49.940;8.450;2022-07-29T06:31:52;0.45;;;0.45;;
6243;SDS011;3155;49.940;8.450;2022-07-29T06:34:19;0.52;;;0.52;;
6243;SDS011;3155;49.940;8.450;2022-07-29T06:36:46;0.63;;;0.63;;
6243;SDS011;3155;49.940;8.450;2022-07-29T06:39:13;0.40;;;0.40;;
6243;SDS011;3155;49.940;8.450;2022-07-29T06:41:41;1.02;;;0.55;;
6243;SDS011;3155;49.940;8.450;2022-07-29T06:44:10;0.43;;;0.43;;
6243;SDS011;3155;49.940;8.450;2022-07-29T06:46:37;0.60;;;0.60;;
6243;SDS011;3155;49.940;8.450;2022-07-29T06:49:04;0.68;;;0.50;;
6243;SDS011;3155;49.940;8.450;2022-07-29T06:51:31;0.50;;;0.50;;
6243;SDS011;3155;49.940;8.450;2022-07-29T06:53:58;0.50;;;0.50;;
6243;SDS011;3155;49.940;8.450;2022-07-29T06:56:32;1.60;;;0.50;;
6243;SDS011;3155;49.940;8.450;2022-07-29T06:59:08;0.50;;;0.50;;
6243;SDS011;3155;49.940;8.450;2022-07-29T07:01:36;0.60;;;0.60;;
6243;SDS011;3155;49.940;8.450;2022-07-29T07:04:04;0.43;;;0.43;;
6243;SDS011;3155;49.940;8.450;2022-07-29T07:06:31;0.50;;;0.50;;
6243;SDS011;3155;49.940;8.450;2022-07-29T07:08:58;0.47;;;0.47;;
6243;SDS011;3155;49.940;8.450;2022-07-29T07:11:25;0.75;;;0.43;;
6243;SDS011;3155;49.940;8.450;2022-07-29T07:13:52;0.50;;;0.50;;
6243;SDS011;3155;49.940;8.450;2022-07-29T07:16:18;0.55;;;0.55;;
6243;SDS011;3155;49.940;8.450;2022-07-29T07:18:45;0.60;;;0.60;;
6243;SDS011;3155;49.940;8.450;2022-07-29T07:21:12;0.50;;;0.45;;
6243;SDS011;3155;49.940;8.450;2022-07-29T07:23:44;0.57;;;0.57;;
6243;SDS011;3155;49.940;8.450;2022-07-29T07:26:12;0.50;;;0.50;;
6243;SDS011;3155;49.940;8.450;2022-07-29T07:28:39;0.60;;;0.60;;
6243;SDS011;3155;49.940;8.450;2022-07-29T07:31:06;0.60;;;0.60;;
6243;SDS011;3155;49.940;8.450;2022-07-29T07:33:33;0.43;;;0.43;;
6243;SDS011;3155;49.940;8.450;2022-07-29T07:36:02;0.55;;;0.55;;
6243;SDS011;3155;49.940;8.450;2022-07-29T07:38:29;0.50;;;0.50;;
6243;SDS011;3155;49.940;8.450;2022-07-29T07:40:56;0.63;;;0.63;;
6243;SDS011;3155;49.940;8.450;2022-07-29T07:43:23;0.57;;;0.57;;
6243;SDS011;3155;49.940;8.450;2022-07-29T07:45:50;0.43;;;0.43;;
6243;SDS011;3155;49.940;8.450;2022-07-29T07:48:19;0.70;;;0.70;;
6243;SDS011;3155;49.940;8.450;2022-07-29T07:50:46;0.55;;;0.55;;
6243;SDS011;3155;49.940;8.450;2022-07-29T07:53:15;0.40;;;0.40;;
6243;SDS011;3155;49.940;8.450;2022-07-29T07:55:43;0.45;;;0.45;;
6243;SDS011;3155;49.940;8.450;2022-07-29T07:58:30;0.50;;;0.50;;
6243;SDS011;3155;49.940;8.450;2022-07-29T08:00:56;0.60;;;0.60;;
6243;SDS011;3155;49.940;8.450;2022-07-29T08:03:23;0.40;;;0.40;;
6243;SDS011;3155;49.940;8.450;2022-07-29T08:05:50;0.50;;;0.50;;
6243;SDS011;3155;49.940;8.450;2022-07-29T08:08:18;0.60;;;0.60;;
6243;SDS011;3155;49.940;8.450;2022-07-29T08:10:44;0.50;;;0.50;;
6243;SDS011;3155;49.940;8.450;2022-07-29T08:13:27;0.60;;;0.60;;
6243;SDS011;3155;49.940;8.450;2022-07-29T08:15:55;0.68;;;0.68;;
6243;SDS011;3155;49.940;8.450;2022-07-29T08:18:27;0.70;;;0.50;;
6243;SDS011;3155;49.940;8.450;2022-07-29T08:20:59;0.80;;;0.80;;
6243;SDS011;3155;49.940;8.450;2022-07-29T08:23:26;0.68;;;0.68;;
6243;SDS011;3155;49.940;8.450;2022-07-29T08:26:14;0.52;;;0.52;;
6243;SDS011;3155;49.940;8.450;2022-07-29T08:28:42;0.55;;;0.55;;
6243;SDS011;3155;49.940;8.450;2022-07-29T08:31:12;0.50;;;0.50;;
6243;SDS011;3155;49.940;8.450;2022-07-29T08:33:39;0.50;;;0.50;;
6243;SDS011;3155;49.940;8.450;2022-07-29T08:36:07;0.70;;;0.70;;
6243;SDS011;3155;49.940;8.450;2022-07-29T08:38:34;0.63;;;0.63;;
6243;SDS011;3155;49.940;8.450;2022-07-29T08:41:01;0.60;;;0.60;;
6243;SDS011;3155;49.940;8.450;2022-07-29T08:43:28;0.70;;;0.70;;
6243;SDS011;3155;49.940;8.450;2022-07-29T08:45:55;0.80;;;0.80;;
6243;SDS011;3155;49.940;8.450;2022-07-29T08:48:22;0.63;;;0.63;;
6243;SDS011;3155;49.940;8.450;2022-07-29T08:50:54;0.60;;;0.60;;
6243;SDS011;3155;49.940;8.450;2022-07-29T08:53:22;0.60;;;0.60;;
6243;SDS011;3155;49.940;8.450;2022-07-29T08:55:52;0.50;;;0.50;;
6243;SDS011;3155;49.940;8.450;2022-07-29T08:58:20;0.60;;;0.60;;
6243;SDS011;3155;49.940;8.450;2022-07-29T09:00:51;0.50;;;0.50;;
6243;SDS011;3155;49.940;8.450;2022-07-29T09:03:22;0.80;;;0.80;;
6243;SDS011;3155;49.940;8.450;2022-07-29T09:05:50;0.70;;;0.70;;
6243;SDS011;3155;49.940;8.450;2022-07-29T09:08:18;0.80;;;0.80;;
6243;SDS011;3155;49.940;8.450;2022-07-29T09:10:46;0.63;;;0.63;;
6243;SDS011;3155;49.940;8.450;2022-07-29T09:13:17;0.70;;;0.70;;
6243;SDS011;3155;49.940;8.450;2022-07-29T09:15:44;0.70;;;0.70;;
6243;SDS011;3155;49.940;8.450;2022-07-29T09:18:44;1.40;;;0.60;;
6243;SDS011;3155;49.940;8.450;2022-07-29T09:21:13;0.60;;;0.60;;
6243;SDS011;3155;49.940;8.450;2022-07-29T09:26:42;0.75;;;0.75;;
6243;SDS011;3155;49.940;8.450;2022-07-29T09:29:20;0.63;;;0.63;;
6243;SDS011;3155;49.940;8.450;2022-07-29T09:31:49;0.70;;;0.70;;
6243;SDS011;3155;49.940;8.450;2022-07-29T09:34:27;0.50;;;0.50;;
6243;SDS011;3155;49.940;8.450;2022-07-29T09:36:57;0.65;;;0.60;;
6243;SDS011;3155;49.940;8.450;2022-07-29T09:42:03;0.60;;;0.60;;
6243;SDS011;3155;49.940;8.450;2022-07-29T09:44:45;0.80;;;0.80;;
6243;SDS011;3155;49.940;8.450;2022-07-29T09:47:16;0.70;;;0.70;;
6243;SDS011;3155;49.940;8.450;2022-07-29T09:49:51;0.60;;;0.60;;
6243;SDS011;3155;49.940;8.450;2022-07-29T09:52:27;0.70;;;0.70;;
6243;SDS011;3155;49.940;8.450;2022-07-29T09:55:05;0.70;;;0.70;;
6243;SDS011;3155;49.940;8.450;2022-07-29T09:57:33;0.90;;;0.70;;
6243;SDS011;3155;49.940;8.450;2022-07-29T10:00:18;0.50;;;0.50;;
6243;SDS011;3155;49.940;8.450;2022-07-29T10:02:47;0.65;;;0.65;;
6243;SDS011;3155;49.940;8.450;2022-07-29T10:05:19;0.80;;;0.60;;
6243;SDS011;3155;49.940;8.450;2022-07-29T10:07:56;0.65;;;0.65;;
6243;SDS011;3155;49.940;8.450;2022-07-29T10:10:33;0.75;;;0.75;;
6243;SDS011;3155;49.940;8.450;2022-07-29T10:13:09;0.50;;;0.50;;
6243;SDS011;3155;49.940;8.450;2022-07-29T10:15:42;0.60;;;0.60;;
6243;SDS011;3155;49.940;8.450;2022-07-29T10:18:11;0.70;;;0.70;;
6243;SDS011;3155;49.940;8.450;2022-07-29T10:20:40;0.68;;;0.68;;
6243;SDS011;3155;49.940;8.450;2022-07-29T10:23:08;0.70;;;0.70;;
6243;SDS011;3155;49.940;8.450;2022-07-29T10:25:35;0.70;;;0.70;;
6243;SDS011;3155;49.940;8.450;2022-07-29T10:28:02;0.70;;;0.70;;
6243;SDS011;3155;49.940;8.450;2022-07-29T10:30:34;0.50;;;0.50;;
6243;SDS011;3155;49.940;8.450;2022-07-29T10:39:52;0.70;;;0.70;;
6243;SDS011;3155;49.940;8.450;2022-07-29T10:42:18;0.63;;;0.63;;
6243;SDS011;3155;49.940;8.450;2022-07-29T10:44:59;0.60;;;0.60;;
6243;SDS011;3155;49.940;8.450;2022-07-29T10:47:29;0.75;;;0.75;;
6243;SDS011;3155;49.940;8.450;2022-07-29T10:49:57;0.80;;;0.80;;
6243;SDS011;3155;49.940;8.450;2022-07-29T10:55:36;1.30;;;0.80;;
6243;SDS011;3155;49.940;8.450;2022-07-29T10:58:22;0.60;;;0.60;;
6243;SDS011;3155;49.940;8.450;2022-07-29T11:00:50;0.60;;;0.60;;
6243;SDS011;3155;49.940;8.450;2022-07-29T11:06:15;0.60;;;0.60;;
6243;SDS011;3155;49.940;8.450;2022-07-29T11:09:37;0.88;;;0.88;;
6243;SDS011;3155;49.940;8.450;2022-07-29T11:12:02;0.82;;;0.75;;
6243;SDS011;3155;49.940;8.450;2022-07-29T11:17:25;0.50;;;0.50;;
6243;SDS011;3155;49.940;8.450;2022-07-29T11:23:25;0.90;;;0.90;;
6243;SDS011;3155;49.940;8.450;2022-07-29T11:31:37;0.73;;;0.73;;
6243;SDS011;3155;49.940;8.450;2022-07-29T11:34:23;0.70;;;0.70;;
6243;SDS011;3155;49.940;8.450;2022-07-29T11:39:39;0.60;;;0.60;;
6243;SDS011;3155;49.940;8.450;2022-07-29T11:45:17;0.70;;;0.70;;
6243;SDS011;3155;49.940;8.450;2022-07-29T11:48:06;0.70;;;0.70;;
6243;SDS011;3155;49.940;8.450;2022-07-29T11:50:56;0.82;;;0.82;;
6243;SDS011;3155;49.940;8.450;2022-07-29T11:53:26;0.70;;;0.70;;
6243;SDS011;3155;49.940;8.450;2022-07-29T11:55:58;0.70;;;0.70;;
6243;SDS011;3155;49.940;8.450;2022-07-29T11:58:27;0.80;;;0.80;;
6243;SDS011;3155;49.940;8.450;2022-07-29T12:00:55;0.60;;;0.60;;
6243;SDS011;3155;49.940;8.450;2022-07-29T12:03:29;0.60;;;0.60;;
6243;SDS011;3155;49.940;8.450;2022-07-29T12:06:00;0.65;;;0.60;;
6243;SDS011;3155;49.940;8.450;2022-07-29T12:08:28;0.80;;;0.80;;
6243;SDS011;3155;49.940;8.450;2022-07-29T12:10:56;0.80;;;0.80;;
6243;SDS011;3155;49.940;8.450;2022-07-29T12:13:23;1.20;;;0.80;;
6243;SDS011;3155;49.940;8.450;2022-07-29T12:16:03;0.60;;;0.60;;
6243;SDS011;3155;49.940;8.450;2022-07-29T12:18:30;0.70;;;0.70;;
6243;SDS011;3155;49.940;8.450;2022-07-29T12:20:58;0.70;;;0.70;;
6243;SDS011;3155;49.940;8.450;2022-07-29T12:23:32;1.40;;;0.60;;
6243;SDS011;3155;49.940;8.450;2022-07-29T12:26:03;0.60;;;0.60;;
6243;SDS011;3155;49.940;8.450;2022-07-29T12:28:38;0.70;;;0.70;;
6243;SDS011;3155;49.940;8.450;2022-07-29T12:31:06;0.70;;;0.70;;
6243;SDS011;3155;49.940;8.450;2022-07-29T12:33:39;0.70;;;0.70;;
6243;SDS011;3155;49.940;8.450;2022-07-29T12:36:06;1.00;;;0.55;;
6243;SDS011;3155;49.940;8.450;2022-07-29T12:38:42;0.55;;;0.55;;
6243;SDS011;3155;49.940;8.450;2022-07-29T12:41:09;0.68;;;0.68;;
6243;SDS011;3155;49.940;8.450;2022-07-29T12:43:36;0.70;;;0.70;;
6243;SDS011;3155;49.940;8.450;2022-07-29T12:46:13;0.70;;;0.70;;
6243;SDS011;3155;49.940;8.450;2022-07-29T12:48:42;0.80;;;0.80;;
6243;SDS011;3155;49.940;8.450;2022-07-29T12:51:10;0.90;;;0.90;;
6243;SDS011;3155;49.940;8.450;2022-07-29T12:53:41;0.60;;;0.60;;
6243;SDS011;3155;49.940;8.450;2022-07-29T12:56:14;0.70;;;0.70;;
6243;SDS011;3155;49.940;8.450;2022-07-29T12:59:11;0.68;;;0.68;;
6243;SDS011;3155;49.940;8.450;2022-07-29T13:01:45;0.85;;;0.80;;
6243;SDS011;3155;49.940;8.450;2022-07-29T13:04:28;0.60;;;0.60;;
6243;SDS011;3155;49.940;8.450;2022-07-29T13:07:05;0.68;;;0.68;;
6243;SDS011;3155;49.940;8.450;2022-07-29T13:09:43;0.63;;;0.63;;
6243;SDS011;3155;49.940;8.450;2022-07-29T13:12:16;0.77;;;0.77;;
6243;SDS011;3155;49.940;8.450;2022-07-29T13:14:44;0.80;;;0.80;;
6243;SDS011;3155;49.940;8.450;2022-07-29T13:17:14;0.47;;;0.45;;
6243;SDS011;3155;49.940;8.450;2022-07-29T13:20:05;1.00;;;0.97;;
6243;SDS011;3155;49.940;8.450;2022-07-29T13:22:35;0.68;;;0.68;;
6243;SDS011;3155;49.940;8.450;2022-07-29T13:25:02;0.70;;;0.70;;
6243;SDS011;3155;49.940;8.450;2022-07-29T13:27:29;0.70;;;0.70;;
6243;SDS011;3155;49.940;8.450;2022-07-29T13:29:58;0.80;;;0.80;;
6243;SDS011;3155;49.940;8.450;2022-07-29T13:32:28;0.80;;;0.80;;
6243;SDS011;3155;49.940;8.450;2022-07-29T13:34:56;0.60;;;0.60;;
6243;SDS011;3155;49.940;8.450;2022-07-29T13:37:25;0.50;;;0.50;;
6243;SDS011;3155;49.940;8.450;2022-07-29T13:39:56;0.80;;;0.80;;
6243;SDS011;3155;49.940;8.450;2022-07-29T13:42:23;0.60;;;0.60;;
6243;SDS011;3155;49.940;8.450;2022-07-29T13:44:51;0.70;;;0.70;;
6243;SDS011;3155;49.940;8.450;2022-07-29T13:47:21;0.60;;;0.60;;
6243;SDS011;3155;49.940;8.450;2022-07-29T13:50:01;0.60;;;0.60;;
6243;SDS011;3155;49.940;8.450;2022-07-29T13:52:31;0.77;;;0.77;;
6243;SDS011;3155;49.940;8.450;2022-07-29T13:54:58;1.10;;;0.90;;
6243;SDS011;3155;49.940;8.450;2022-07-29T13:57:24;0.65;;;0.65;;
6243;SDS011;3155;49.940;8.450;2022-07-29T13:59:51;0.60;;;0.60;;
6243;SDS011;3155;49.940;8.450;2022-07-29T14:02:19;0.60;;;0.60;;
6243;SDS011;3155;49.940;8.450;2022-07-29T14:04:51;0.75;;;0.75;;
6243;SDS011;3155;49.940;8.450;2022-07-29T14:07:19;0.90;;;0.70;;
6243;SDS011;3155;49.940;8.450;2022-07-29T14:09:46;0.60;;;0.60;;
6243;SDS011;3155;49.940;8.450;2022-07-29T14:12:13;0.70;;;0.70;;
6243;SDS011;3155;49.940;8.450;2022-07-29T14:14:39;0.60;;;0.60;;
6243;SDS011;3155;49.940;8.450;2022-07-29T14:17:08;0.60;;;0.60;;
6243;SDS011;3155;49.940;8.450;2022-07-29T14:19:35;0.70;;;0.70;;
6243;SDS011;3155;49.940;8.450;2022-07-29T14:22:04;0.95;;;0.75;;
6243;SDS011;3155;49.940;8.450;2022-07-29T14:24:32;0.73;;;0.73;;
6243;SDS011;3155;49.940;8.450;2022-07-29T14:27:02;0.60;;;0.60;;
6243;SDS011;3155;49.940;8.450;2022-07-29T14:29:30;0.60;;;0.60;;
6243;SDS011;3155;49.940;8.450;2022-07-29T14:32:04;0.60;;;0.60;;
6243;SDS011;3155;49.940;8.450;2022-07-29T14:34:32;0.80;;;0.80;;
6243;SDS011;3155;49.940;8.450;2022-07-29T14:37:00;0.75;;;0.75;;
6243;SDS011;3155;49.940;8.450;2022-07-29T14:39:29;1.17;;;1.17;;
6243;SDS011;3155;49.940;8.450;2022-07-29T14:41:57;0.70;;;0.70;;
6243;SDS011;3155;49.940;8.450;2022-07-29T14:44:25;0.60;;;0.60;;
6243;SDS011;3155;49.940;8.450;2022-07-29T14:47:18;0.73;;;0.73;;
6243;SDS011;3155;49.940;8.450;2022-07-29T14:49:44;0.60;;;0.60;;
6243;SDS011;3155;49.940;8.450;2022-07-29T14:52:10;0.73;;;0.73;;
6243;SDS011;3155;49.940;8.450;2022-07-29T14:54:37;0.70;;;0.70;;
6243;SDS011;3155;49.940;8.450;2022-07-29T14:57:07;0.70;;;0.70;;
6243;SDS011;3155;49.940;8.450;2022-07-29T14:59:34;0.70;;;0.70;;
6243;SDS011;3155;49.940;8.450;2022-07-29T15:02:01;1.00;;;0.65;;
6243;SDS011;3155;49.940;8.450;2022-07-29T15:04:29;0.70;;;0.70;;
6243;SDS011;3155;49.940;8.450;2022-07-29T15:06:56;0.60;;;0.60;;
6243;SDS011;3155;49.940;8.450;2022-07-29T15:09:23;0.50;;;0.50;;
6243;SDS011;3155;49.940;8.450;2022-07-29T15:11:50;0.70;;;0.70;;
6243;SDS011;3155;49.940;8.450;2022-07-29T15:14:17;0.70;;;0.70;;
6243;SDS011;3155;49.940;8.450;2022-07-29T15:16:44;0.80;;;0.80;;
6243;SDS011;3155;49.940;8.450;2022-07-29T15:19:13;0.77;;;0.77;;
6243;SDS011;3155;49.940;8.450;2022-07-29T15:21:40;0.60;;;0.60;;
6243;SDS011;3155;49.940;8.450;2022-07-29T15:24:14;0.50;;;0.50;;
6243;SDS011;3155;49.940;8.450;2022-07-29T15:26:42;0.57;;;0.57;;
6243;SDS011;3155;49.940;8.450;2022-07-29T15:29:09;0.60;;;0.60;;
6243;SDS011;3155;49.940;8.450;2022-07-29T15:31:36;1.00;;;0.70;;
6243;SDS011;3155;49.940;8.450;2022-07-29T15:34:03;0.60;;;0.60;;
6243;SDS011;3155;49.940;8.450;2022-07-29T15:36:31;0.60;;;0.60;;
6243;SDS011;3155;49.940;8.450;2022-07-29T15:39:18;0.60;;;0.60;;
6243;SDS011;3155;49.940;8.450;2022-07-29T15:41:46;0.65;;;0.65;;
6243;SDS011;3155;49.940;8.450;2022-07-29T15:44:13;0.60;;;0.60;;
6243;SDS011;3155;49.940;8.450;2022-07-29T15:46:39;0.63;;;0.63;;
6243;SDS011;3155;49.940;8.450;2022-07-29T15:49:26;0.50;;;0.50;;
6243;SDS011;3155;49.940;8.450;2022-07-29T15:52:14;0.80;;;0.80;;
6243;SDS011;3155;49.940;8.450;2022-07-29T15:54:43;0.60;;;0.60;;
6243;SDS011;3155;49.940;8.450;2022-07-29T15:57:11;0.60;;;0.60;;
6243;SDS011;3155;49.940;8.450;2022-07-29T15:59:38;0.90;;;0.90;;
6243;SDS011;3155;49.940;8.450;2022-07-29T16:02:05;0.70;;;0.70;;
6243;SDS011;3155;49.940;8.450;2022-07-29T16:04:32;0.60;;;0.60;;
6243;SDS011;3155;49.940;8.450;2022-07-29T16:07:01;0.75;;;0.75;;
6243;SDS011;3155;49.940;8.450;2022-07-29T16:09:29;0.70;;;0.70;;
6243;SDS011;3155;49.940;8.450;2022-07-29T16:11:55;1.00;;;0.65;;
6243;SDS011;3155;49.940;8.450;2022-07-29T16:14:22;0.80;;;0.80;;
6243;SDS011;3155;49.940;8.450;2022-07-29T16:16:53;0.77;;;0.77;;
6243;SDS011;3155;49.940;8.450;2022-07-29T16:19:29;0.70;;;0.70;;
6243;SDS011;3155;49.940;8.450;2022-07-29T16:21:59;0.80;;;0.80;;
6243;SDS011;3155;49.940;8.450;2022-07-29T16:24:25;0.70;;;0.70;;